Time;durP1;ratioP1;P1;durP2;ratioP2;P2;SDS_P1;SDS_P2;PMS_P1;PMS_P2;Temp;Humidity;BMP_temperature;BMP_pressure;BME280_temperature;BME280_humidity;BME280_pressure;Samples;Min_cycle;Max_cycle;Signal;HPM_P1;HPM_P2
2021/07/27 00:01:15;;;;;;;10.82;8.30;;;;;;;21.97;71.16;99287.41;5096764;28;20044;-54
2021/07/27 00:03:41;;;;;;;9.45;8.40;;;;;;;21.90;71.33;99287.94;5096912;28;20052;-54
2021/07/27 00:06:08;;;;;;;10.13;8.50;;;;;;;21.87;71.08;99287.28;5097008;28;20055;-54
2021/07/27 00:08:36;;;;;;;11.13;8.50;;;;;;;21.84;71.05;99291.06;5095774;28;20127;-54
2021/07/27 00:11:06;;;;;;;10.45;8.23;;;;;;;21.81;71.09;99288.66;5096828;28;20048;-54
2021/07/27 00:13:32;;;;;;;12.02;9.98;;;;;;;21.80;71.37;99294.09;5096897;28;20047;-54
2021/07/27 00:15:58;;;;;;;10.40;9.27;;;;;;;21.78;71.82;99288.91;5096552;28;20054;-54
2021/07/27 00:18:24;;;;;;;10.57;9.45;;;;;;;21.78;71.46;99294.22;5096838;28;20067;-54
2021/07/27 00:20:50;;;;;;;11.00;9.90;;;;;;;21.79;71.35;99300.41;5096268;28;20048;-54
2021/07/27 00:23:16;;;;;;;10.20;9.20;;;;;;;21.77;71.89;99287.19;5096439;28;20416;-54
2021/07/27 00:25:42;;;;;;;12.43;10.35;;;;;;;21.77;71.83;99297.84;5096426;28;20425;-54
2021/07/27 00:28:09;;;;;;;11.00;9.05;;;;;;;21.77;72.16;99289.84;5096720;28;20035;-54
2021/07/27 00:30:35;;;;;;;14.20;10.07;;;;;;;21.77;72.58;99289.84;5096320;28;20135;-55
2021/07/27 00:33:00;;;;;;;10.73;9.45;;;;;;;21.78;72.64;99298.72;5096585;28;20044;-55
2021/07/27 00:35:28;;;;;;;11.38;10.27;;;;;;;21.77;72.49;99291.66;5096258;28;20454;-55
2021/07/27 00:38:09;;;;;;;11.30;10.23;;;;;;;21.77;72.85;99287.19;5096206;28;20056;-55
2021/07/27 00:40:36;;;;;;;10.85;9.30;;;;;;;21.76;72.94;99287.31;5096195;28;20408;-55
2021/07/27 00:43:09;;;;;;;11.75;10.55;;;;;;;21.77;73.20;99283.66;5096365;28;20068;-54
2021/07/27 00:45:35;;;;;;;10.95;8.70;;;;;;;21.73;73.01;99280.41;5095592;28;20071;-54
2021/07/27 00:48:01;;;;;;;9.85;8.68;;;;;;;21.74;73.08;99283.91;5095533;28;20441;-54
2021/07/27 00:50:27;;;;;;;10.55;8.88;;;;;;;21.74;73.21;99266.09;5096389;28;20430;-54
2021/07/27 00:52:55;;;;;;;11.25;9.30;;;;;;;21.74;73.64;99271.44;5096048;28;20048;-54
2021/07/27 00:55:21;;;;;;;12.40;10.40;;;;;;;21.72;73.36;99260.06;5096085;28;20047;-54
2021/07/27 00:57:47;;;;;;;9.93;8.93;;;;;;;21.71;73.35;99258.38;5095792;28;20079;-54
2021/07/27 01:00:13;;;;;;;10.07;9.07;;;;;;;21.70;73.19;99254.84;5078753;28;20048;-54
2021/07/27 01:02:39;;;;;;;11.52;9.30;;;;;;;21.70;73.15;99259.31;5096182;28;20053;-55
2021/07/27 01:05:05;;;;;;;10.35;9.35;;;;;;;21.68;73.09;99264.78;5095869;28;20461;-55
2021/07/27 01:07:31;;;;;;;13.90;10.48;;;;;;;21.67;73.07;99267.56;5095950;28;20060;-54
2021/07/27 01:09:57;;;;;;;14.25;10.30;;;;;;;21.64;73.11;99263.34;5095052;28;20576;-54
2021/07/27 01:12:23;;;;;;;10.60;9.27;;;;;;;21.63;73.10;99266.13;5096187;28;20044;-54
2021/07/27 01:14:49;;;;;;;10.05;9.05;;;;;;;21.61;73.31;99260.94;5096188;28;20036;-54
2021/07/27 01:17:15;;;;;;;12.35;9.85;;;;;;;21.60;73.14;99271.69;5095915;28;20036;-54
2021/07/27 01:43:46;;;;;;;14.07;12.57;;;;;;;21.42;75.16;99322.78;5099423;28;20044;-54
2021/07/27 01:46:14;;;;;;;12.82;11.00;;;;;;;21.34;75.27;99316.31;5098555;28;20036;-54
2021/07/27 01:48:39;;;;;;;10.82;9.80;;;;;;;21.28;74.95;99325.63;5098452;28;20135;-54
2021/07/27 01:51:05;;;;;;;11.70;10.00;;;;;;;21.22;74.94;99342.94;5098494;28;20036;-55
2021/07/27 01:53:35;;;;;;;14.23;10.55;;;;;;;21.14;75.51;99358.63;5098679;28;20059;-54
2021/07/27 01:56:01;;;;;;;11.60;10.40;;;;;;;21.05;75.74;99358.47;5099463;28;20052;-54
2021/07/27 01:58:27;;;;;;;11.25;10.15;;;;;;;21.01;75.58;99356.06;5099632;28;20492;-54
2021/07/27 02:00:53;;;;;;;11.95;10.20;;;;;;;21.00;75.86;99359.69;5099416;28;20105;-54
2021/07/27 02:03:19;;;;;;;13.38;10.90;;;;;;;21.01;75.86;99361.38;5064710;28;20355;-54
2021/07/27 02:05:45;;;;;;;14.10;10.02;;;;;;;21.01;76.10;99361.38;5098990;28;20051;-54
2021/07/27 02:08:12;;;;;;;13.98;10.25;;;;;;;21.05;76.04;99361.16;5099299;28;20048;-54
2021/07/27 02:10:39;;;;;;;11.73;10.07;;;;;;;21.07;76.31;99368.06;5098399;28;20048;-55
2021/07/27 02:13:24;;;;;;;13.20;11.68;;;;;;;21.11;76.17;99360.69;5098097;28;20392;-55
2021/07/27 02:15:50;;;;;;;18.35;11.50;;;;;;;20.98;77.84;99353.63;5083746;28;20044;-55
2021/07/27 02:18:16;;;;;;;54.67;13.60;;;;;;;20.91;80.38;99346.22;5098821;28;20047;-53
2021/07/27 02:20:44;;;;;;;19.40;12.27;;;;;;;20.75;82.43;99358.00;5099032;28;20059;-53
2021/07/27 02:23:10;;;;;;;15.10;11.85;;;;;;;20.64;83.42;99357.13;5098075;28;20124;-53
2021/07/27 02:25:36;;;;;;;12.95;10.95;;;;;;;20.61;84.23;99367.97;5098616;28;20446;-53
2021/07/27 02:28:02;;;;;;;25.00;12.23;;;;;;;20.59;84.76;99369.88;5098834;28;20048;-53
2021/07/27 02:30:30;;;;;;;14.65;12.13;;;;;;;20.59;84.88;99364.56;5097669;28;20048;-54
2021/07/27 02:32:56;;;;;;;13.13;10.52;;;;;;;20.58;85.37;99369.03;5098800;28;20044;-54
2021/07/27 02:35:29;;;;;;;16.15;11.50;;;;;;;20.57;84.87;99366.47;5098733;28;20060;-54
2021/07/27 02:37:55;;;;;;;16.08;12.20;;;;;;;20.50;85.14;99364.22;5097905;28;20062;-55
2021/07/27 02:40:21;;;;;;;15.00;12.68;;;;;;;20.46;85.33;99357.44;5080759;28;20433;-55
2021/07/27 02:42:48;;;;;;;15.18;12.13;;;;;;;20.49;84.74;99359.88;5080475;28;20044;-54
2021/07/27 02:45:14;;;;;;;14.82;11.52;;;;;;;20.48;85.05;99370.66;5098264;28;20331;-55
2021/07/27 02:47:40;;;;;;;13.07;11.35;;;;;;;20.45;85.39;99366.41;5098293;28;20356;-55
2021/07/27 02:50:07;;;;;;;15.00;11.98;;;;;;;20.45;84.75;99362.91;5098184;28;20048;-55
2021/07/27 02:52:33;;;;;;;15.77;11.95;;;;;;;20.44;84.74;99364.72;5098420;28;20044;-55
2021/07/27 02:54:59;;;;;;;13.77;10.73;;;;;;;20.48;84.57;99355.53;5098355;28;20045;-55
2021/07/27 02:57:25;;;;;;;14.27;11.15;;;;;;;20.50;84.11;99355.41;5098050;28;20105;-55
2021/07/27 02:59:50;;;;;;;13.10;11.70;;;;;;;20.48;83.53;99357.34;5098268;28;20047;-55
2021/07/27 03:02:21;;;;;;;13.15;10.23;;;;;;;20.47;83.66;99369.81;5098150;28;20044;-55
2021/07/27 03:04:47;;;;;;;17.55;11.63;;;;;;;20.45;83.75;99381.50;5097877;28;20059;-55
2021/07/27 03:07:19;;;;;;;13.75;11.27;;;;;;;20.46;83.48;99372.56;5097865;28;20040;-55
2021/07/27 03:12:29;;;;;;;13.80;11.27;;;;;;;20.43;83.67;99381.59;5098012;28;20044;-55
2021/07/27 03:14:59;;;;;;;16.48;11.68;;;;;;;20.46;83.33;99393.84;5097621;28;20358;-55
2021/07/27 03:17:25;;;;;;;13.93;11.98;;;;;;;20.41;83.65;99394.19;5097925;28;20052;-55
2021/07/27 03:19:51;;;;;;;12.25;10.93;;;;;;;20.40;83.39;99386.31;5097265;28;20063;-55
2021/07/27 03:22:20;;;;;;;14.88;10.98;;;;;;;20.40;83.03;99383.63;5097453;28;20056;-55
2021/07/27 03:24:46;;;;;;;14.55;10.40;;;;;;;20.40;83.12;99388.97;5096933;28;20062;-55
2021/07/27 03:27:12;;;;;;;14.82;11.73;;;;;;;20.40;83.39;99373.84;5097453;28;20040;-55
2021/07/27 03:29:37;;;;;;;14.63;12.40;;;;;;;20.39;83.25;99377.47;5097354;28;20051;-55
2021/07/27 03:32:03;;;;;;;14.32;11.35;;;;;;;20.39;83.47;99379.28;5097362;28;20055;-55
2021/07/27 03:34:29;;;;;;;14.77;12.10;;;;;;;20.41;83.42;99374.69;5097253;28;20060;-55
2021/07/27 03:36:55;;;;;;;16.70;13.75;;;;;;;20.41;82.88;99375.56;5096650;28;20052;-55
2021/07/27 03:39:20;;;;;;;13.85;11.90;;;;;;;20.41;82.94;99372.03;5096627;28;20052;-55
2021/07/27 03:41:46;;;;;;;14.02;10.88;;;;;;;20.41;82.70;99370.25;5097125;28;20044;-55
2021/07/27 03:44:15;;;;;;;14.82;11.18;;;;;;;20.42;82.65;99369.28;5097296;28;20105;-55
2021/07/27 03:46:43;;;;;;;17.00;13.68;;;;;;;20.45;82.72;99366.41;5096517;28;20047;-55
2021/07/27 03:49:09;;;;;;;15.23;11.18;;;;;;;20.40;82.81;99371.19;5097052;28;20115;-55
2021/07/27 03:51:35;;;;;;;15.68;11.82;;;;;;;20.42;83.22;99379.06;5097241;28;20066;-55
2021/07/27 03:54:01;;;;;;;14.65;11.40;;;;;;;20.43;83.20;99381.59;5096685;28;20375;-55
2021/07/27 03:56:26;;;;;;;14.80;11.80;;;;;;;20.46;83.29;99384.03;5095719;28;20051;-55
2021/07/27 03:58:52;;;;;;;16.67;11.32;;;;;;;20.51;83.13;99384.59;5096699;28;20134;-55
2021/07/27 04:01:18;;;;;;;14.05;10.30;;;;;;;20.58;83.35;99389.47;5097438;28;20051;-55
2021/07/27 04:03:44;;;;;;;12.23;10.90;;;;;;;20.63;83.56;99397.97;5097028;28;20051;-55
2021/07/27 04:06:11;;;;;;;13.27;11.32;;;;;;;20.69;83.44;99395.69;5096133;28;20131;-55
2021/07/27 04:08:37;;;;;;;13.05;11.18;;;;;;;20.77;83.79;99389.84;5096691;28;20055;-55
2021/07/27 04:11:04;;;;;;;18.30;11.65;;;;;;;20.82;84.09;99390.31;5096670;28;20040;-55
2021/07/27 04:13:31;;;;;;;14.52;11.20;;;;;;;20.87;83.76;99388.19;5096645;28;20082;-55
2021/07/27 04:15:59;;;;;;;15.55;11.98;;;;;;;20.92;83.33;99388.69;5096842;28;20052;-55
2021/07/27 04:18:25;;;;;;;14.68;11.82;;;;;;;20.96;83.60;99395.50;5096271;28;20060;-55
2021/07/27 04:20:54;;;;;;;18.35;12.88;;;;;;;21.02;83.36;99399.47;5096787;28;20105;-55
2021/07/27 04:23:19;;;;;;;13.32;11.77;;;;;;;21.07;83.36;99407.16;5095529;28;20040;-55
2021/07/27 04:25:45;;;;;;;12.77;10.90;;;;;;;21.14;83.24;99409.22;5096681;28;20058;-55
2021/07/27 04:28:11;;;;;;;13.70;10.82;;;;;;;21.21;83.15;99414.94;5096688;28;20052;-55
2021/07/27 04:30:37;;;;;;;12.65;10.98;;;;;;;21.29;83.33;99417.88;5096598;28;20347;-55
2021/07/27 04:33:02;;;;;;;17.00;12.18;;;;;;;21.34;82.97;99413.03;5096320;28;20335;-55
2021/07/27 04:35:28;;;;;;;15.60;11.85;;;;;;;21.36;82.75;99404.97;5096315;28;20040;-55
2021/07/27 04:37:56;;;;;;;13.77;12.27;;;;;;;21.50;82.57;99410.09;5096503;28;20054;-55
2021/07/27 04:40:22;;;;;;;13.52;10.70;;;;;;;21.54;82.38;99411.56;5095639;28;20048;-55
2021/07/27 04:42:48;;;;;;;12.55;11.32;;;;;;;21.60;82.34;99410.25;5096400;28;20084;-55
2021/07/27 04:45:14;;;;;;;12.48;11.10;;;;;;;21.69;82.58;99417.53;5096035;28;20089;-55
2021/07/27 04:47:40;;;;;;;13.95;12.40;;;;;;;21.79;82.14;99420.34;5094936;28;20056;-56
2021/07/27 04:50:06;;;;;;;13.43;12.05;;;;;;;21.90;81.51;99418.53;5096414;28;20044;-56
2021/07/27 04:52:32;;;;;;;14.55;11.20;;;;;;;21.99;81.37;99429.44;5096316;28;20096;-55
2021/07/27 04:54:58;;;;;;;14.45;12.10;;;;;;;22.00;81.28;99425.78;5095410;28;20048;-55
2021/07/27 04:57:24;;;;;;;13.82;11.93;;;;;;;22.01;81.25;99440.84;5095992;28;20385;-55
2021/07/27 04:59:50;;;;;;;13.48;12.13;;;;;;;22.01;81.16;99447.03;5096295;28;20416;-55
2021/07/27 05:02:16;;;;;;;14.48;11.95;;;;;;;22.01;80.81;99447.03;5095870;28;20394;-55
2021/07/27 05:04:46;;;;;;;16.88;11.52;;;;;;;22.02;81.04;99447.88;5095914;28;20109;-55
2021/07/27 05:07:12;;;;;;;13.40;10.77;;;;;;;22.00;80.65;99444.47;5099795;28;20357;-55
2021/07/27 05:09:37;;;;;;;12.95;10.75;;;;;;;22.05;81.14;99453.81;5099196;28;20127;-55
2021/07/27 05:12:04;;;;;;;12.18;10.75;;;;;;;22.04;80.84;99449.44;5082679;28;20058;-55
2021/07/27 05:14:30;;;;;;;12.65;11.23;;;;;;;22.23;81.40;99450.69;5100311;28;20091;-55
2021/07/27 05:17:04;;;;;;;11.38;10.25;;;;;;;22.59;80.57;99447.78;5100250;28;20131;-55
2021/07/27 05:19:30;;;;;;;11.75;9.57;;;;;;;23.07;79.77;99454.59;5099151;28;20048;-55
2021/07/27 05:21:56;;;;;;;13.63;10.27;;;;;;;23.53;78.64;99459.63;5100054;28;20055;-55
2021/07/27 05:24:22;;;;;;;10.63;9.63;;;;;;;23.76;76.59;99463.06;5100329;28;20132;-55
2021/07/27 05:26:48;;;;;;;11.15;9.23;;;;;;;23.87;75.92;99463.97;5100036;28;20048;-55
2021/07/27 05:29:16;;;;;;;11.07;8.60;;;;;;;23.74;75.31;99467.69;5099755;28;20051;-55
2021/07/27 05:31:42;;;;;;;13.88;9.63;;;;;;;23.62;75.37;99471.34;5100168;28;20466;-56
2021/07/27 05:34:08;;;;;;;13.45;9.93;;;;;;;23.56;75.37;99478.09;5099081;28;20131;-55
2021/07/27 05:36:35;;;;;;;10.98;9.88;;;;;;;23.59;76.04;99473.44;5099897;28;20131;-55
2021/07/27 05:39:01;;;;;;;12.55;9.98;;;;;;;23.54;75.27;99460.47;5099829;28;20105;-56
2021/07/27 05:41:27;;;;;;;12.30;9.88;;;;;;;23.52;75.61;99468.59;5099819;28;20048;-55
2021/07/27 05:43:53;;;;;;;10.57;9.15;;;;;;;23.56;75.73;99463.84;5081803;28;20040;-56
2021/07/27 05:46:19;;;;;;;10.73;9.63;;;;;;;23.53;75.26;99464.13;5099417;28;20036;-56
2021/07/27 05:48:46;;;;;;;12.30;10.35;;;;;;;23.46;75.24;99463.78;5098511;28;20044;-55
2021/07/27 05:51:14;;;;;;;9.98;8.98;;;;;;;23.50;75.55;99470.59;5082142;28;20410;-56
2021/07/27 05:53:41;;;;;;;10.35;8.95;;;;;;;23.56;75.67;99474.53;5099623;28;20052;-56
2021/07/27 05:56:07;;;;;;;9.50;8.40;;;;;;;23.63;75.75;99475.75;5099227;28;20048;-55
2021/07/27 05:58:33;;;;;;;10.18;8.93;;;;;;;23.73;75.99;99475.84;5098180;28;20086;-55
2021/07/27 06:00:59;;;;;;;8.80;7.97;;;;;;;23.73;75.10;99468.66;5099494;28;20044;-56
2021/07/27 06:03:25;;;;;;;10.52;8.52;;;;;;;23.73;75.16;99476.69;5099050;28;20100;-56
2021/07/27 06:05:51;;;;;;;9.63;8.38;;;;;;;23.73;75.08;99479.34;5099068;28;20438;-55
2021/07/27 06:08:17;;;;;;;9.40;8.50;;;;;;;23.73;74.93;99476.69;5099328;28;20059;-55
2021/07/27 06:10:43;;;;;;;9.95;8.05;;;;;;;23.69;75.06;99482.41;5099257;28;20048;-55
2021/07/27 06:13:08;;;;;;;10.35;8.48;;;;;;;23.72;75.09;99483.03;5098985;28;20051;-55
2021/07/27 06:15:34;;;;;;;8.93;8.00;;;;;;;23.73;74.86;99490.06;5098929;28;20036;-55
2021/07/27 06:18:00;;;;;;;7.38;6.68;;;;;;;23.77;74.88;99487.97;5097172;28;20050;-55
2021/07/27 06:20:26;;;;;;;7.20;6.50;;;;;;;23.81;74.88;99488.53;5098749;28;20400;-55
2021/07/27 06:22:51;;;;;;;7.22;6.45;;;;;;;23.88;75.10;99490.56;5098927;28;20063;-56
2021/07/27 06:25:18;;;;;;;8.35;6.75;;;;;;;23.96;74.70;99490.75;5098722;28;20456;-55
2021/07/27 06:27:43;;;;;;;7.47;6.70;;;;;;;24.13;74.29;99489.31;5098699;28;20114;-55
2021/07/27 06:30:10;;;;;;;8.43;7.07;;;;;;;24.35;73.78;99482.09;5099355;28;20056;-55
2021/07/27 06:32:36;;;;;;;8.65;7.72;;;;;;;24.47;73.33;99484.59;5098544;28;20048;-56
2021/07/27 06:35:02;;;;;;;11.57;7.10;;;;;;;24.56;72.90;99480.22;5098435;28;20113;-55
2021/07/27 06:37:28;;;;;;;9.20;7.82;;;;;;;24.60;71.69;99472.78;5099538;28;20354;-55
2021/07/27 06:39:54;;;;;;;7.00;6.30;;;;;;;24.70;71.32;99476.34;5098657;28;20130;-55
2021/07/27 06:42:19;;;;;;;8.68;6.45;;;;;;;24.82;71.38;99477.06;5098567;28;20396;-55
2021/07/27 06:44:45;;;;;;;7.68;6.68;;;;;;;24.89;70.74;99473.72;5098376;28;20502;-55
2021/07/27 06:47:11;;;;;;;7.35;6.43;;;;;;;25.00;70.33;99477.25;5098378;28;20055;-55
2021/07/27 06:49:37;;;;;;;7.63;6.32;;;;;;;25.09;70.15;99487.13;5098154;28;20044;-55
2021/07/27 06:52:03;;;;;;;6.57;5.88;;;;;;;25.33;70.54;99478.72;5098474;28;20063;-55
2021/07/27 06:54:29;;;;;;;10.05;8.10;;;;;;;25.62;70.19;99479.56;5098121;28;20036;-55
2021/07/27 06:56:55;;;;;;;6.82;6.07;;;;;;;26.05;69.41;99475.56;5097092;28;20055;-55
2021/07/27 06:59:23;;;;;;;6.68;5.80;;;;;;;26.40;68.19;99484.78;5098379;28;20044;-56
2021/07/27 07:01:51;;;;;;;12.20;6.88;;;;;;;26.78;65.79;99483.78;5098076;28;20040;-56
2021/07/27 07:04:17;;;;;;;5.38;4.88;;;;;;;27.09;64.70;99474.53;5097321;28;20079;-56
2021/07/27 07:06:43;;;;;;;6.15;5.20;;;;;;;27.55;65.28;99478.00;5097869;28;20048;-56
2021/07/27 07:09:09;;;;;;;5.15;4.75;;;;;;;28.02;63.99;99475.06;5098167;28;20044;-56
2021/07/27 07:11:35;;;;;;;9.50;4.70;;;;;;;28.37;62.04;99479.44;5098230;28;20037;-56
2021/07/27 07:14:01;;;;;;;4.82;4.32;;;;;;;28.72;59.96;99477.59;5096876;28;20461;-57
2021/07/27 07:16:27;;;;;;;4.60;3.70;;;;;;;29.05;59.76;99484.81;5097777;28;20040;-57
2021/07/27 07:18:53;;;;;;;4.28;3.72;;;;;;;29.37;59.13;99475.09;5097896;28;20051;-57
2021/07/27 07:21:19;;;;;;;3.78;3.47;;;;;;;29.58;56.96;99474.59;5097050;28;20059;-57
2021/07/27 07:23:45;;;;;;;3.42;3.13;;;;;;;29.74;55.65;99474.63;5098033;28;20393;-57
2021/07/27 07:26:11;;;;;;;4.07;3.67;;;;;;;29.89;56.05;99480.16;5096931;28;20067;-57
2021/07/27 07:28:39;;;;;;;3.42;3.13;;;;;;;30.08;54.60;99470.88;5097482;28;20078;-57
2021/07/27 07:31:10;;;;;;;3.80;3.38;;;;;;;30.23;51.54;99465.66;5096729;28;20105;-57
2021/07/27 07:33:35;;;;;;;3.42;3.05;;;;;;;30.31;51.75;99470.16;5097622;28;20060;-57
2021/07/27 07:36:11;;;;;;;2.92;2.72;;;;;;;30.39;50.28;99473.69;5097615;28;20059;-57
2021/07/27 07:38:37;;;;;;;3.72;3.33;;;;;;;30.36;50.45;99473.19;5097654;28;20074;-57
2021/07/27 07:41:09;;;;;;;3.72;2.70;;;;;;;30.33;50.30;99471.69;5097512;28;20048;-57
2021/07/27 07:43:35;;;;;;;3.40;3.10;;;;;;;30.36;50.32;99471.34;5097147;28;20041;-57
2021/07/27 07:46:01;;;;;;;4.72;2.78;;;;;;;30.37;49.71;99472.19;5096289;28;20052;-57
2021/07/27 07:48:27;;;;;;;3.83;3.30;;;;;;;30.40;48.13;99477.22;5097095;28;20063;-57
2021/07/27 07:50:53;;;;;;;2.88;2.63;;;;;;;30.54;48.88;99470.25;5096498;28;20467;-57
2021/07/27 07:53:19;;;;;;;3.40;2.90;;;;;;;30.68;48.04;99481.19;5096988;28;20131;-57
2021/07/27 07:55:45;;;;;;;3.58;2.60;;;;;;;30.80;48.25;99473.53;5097018;28;20121;-57
2021/07/27 07:58:10;;;;;;;3.97;3.00;;;;;;;30.82;46.96;99471.50;5096835;28;20065;-57
2021/07/27 08:00:36;;;;;;;3.40;2.83;;;;;;;30.90;47.29;99478.72;5096874;28;20093;-57
2021/07/27 08:03:03;;;;;;;3.60;3.30;;;;;;;30.85;45.05;99479.25;5095893;28;20032;-57
2021/07/27 08:05:29;;;;;;;5.68;3.72;;;;;;;30.95;48.68;99487.16;5096799;28;20154;-57
2021/07/27 08:07:55;;;;;;;4.60;2.70;;;;;;;31.18;48.85;99473.66;5097099;28;20422;-57
2021/07/27 08:10:21;;;;;;;4.22;2.78;;;;;;;31.48;49.13;99477.34;5095834;28;20052;-57
2021/07/27 08:12:47;;;;;;;3.35;2.90;;;;;;;31.67;47.59;99478.72;5096655;28;20048;-57
2021/07/27 08:15:14;;;;;;;3.72;3.17;;;;;;;31.62;44.65;99471.16;5096937;28;20403;-57
2021/07/27 08:17:40;;;;;;;2.70;2.50;;;;;;;31.68;45.71;99466.88;5095564;28;20051;-57
2021/07/27 08:20:06;;;;;;;2.90;2.60;;;;;;;31.82;45.18;99466.06;5094859;28;20047;-57
2021/07/27 08:22:36;;;;;;;2.45;2.25;;;;;;;31.96;44.34;99477.97;5094758;28;20044;-57
2021/07/27 08:25:01;;;;;;;2.40;2.20;;;;;;;32.03;45.78;99468.09;5094674;28;20094;-57
2021/07/27 08:27:27;;;;;;;3.17;2.60;;;;;;;32.21;45.97;99470.44;5093961;28;20055;-57
2021/07/27 08:29:53;;;;;;;5.95;3.00;;;;;;;32.45;46.46;99476.63;5094779;28;20105;-57
2021/07/27 08:32:19;;;;;;;4.28;2.72;;;;;;;32.50;44.05;99471.47;5094472;28;20339;-57
2021/07/27 08:34:45;;;;;;;2.88;2.40;;;;;;;32.47;44.22;99477.31;5096253;28;20048;-57
2021/07/27 08:37:11;;;;;;;4.47;2.53;;;;;;;32.56;44.19;99476.16;5096556;28;20059;-57
2021/07/27 08:39:37;;;;;;;3.60;2.08;;;;;;;32.62;42.84;99480.00;5096553;28;20052;-57
2021/07/27 08:42:04;;;;;;;2.92;2.72;;;;;;;32.65;43.75;99480.44;5096102;28;20101;-58
2021/07/27 08:44:31;;;;;;;3.35;2.25;;;;;;;32.78;43.54;99479.78;5096421;28;20044;-58
2021/07/27 08:47:04;;;;;;;2.78;2.47;;;;;;;32.82;42.49;99472.94;5096114;28;20054;-57
2021/07/27 08:49:30;;;;;;;2.75;2.55;;;;;;;32.67;42.45;99478.41;5096218;28;20142;-58
2021/07/27 08:51:57;;;;;;;2.72;2.33;;;;;;;32.71;42.59;99474.28;5096356;28;20052;-58
2021/07/27 08:54:22;;;;;;;2.55;2.22;;;;;;;32.83;43.02;99477.34;5095520;28;20044;-58
2021/07/27 08:56:50;;;;;;;3.17;2.70;;;;;;;32.88;42.87;99476.75;5096142;28;20453;-57
2021/07/27 08:59:16;;;;;;;2.50;2.30;;;;;;;32.95;43.11;99474.97;5096043;28;20431;-58
2021/07/27 09:01:42;;;;;;;2.65;2.45;;;;;;;33.08;42.46;99468.88;5095967;28;20052;-58
2021/07/27 09:04:08;;;;;;;3.45;3.15;;;;;;;33.13;40.79;99472.72;5096192;28;20131;-58
2021/07/27 09:06:34;;;;;;;3.47;2.50;;;;;;;33.17;42.31;99474.00;5095944;28;20343;-58
2021/07/27 09:09:07;;;;;;;3.47;3.13;;;;;;;33.09;41.94;99466.00;5096013;28;20036;-58
2021/07/27 09:11:42;;;;;;;3.22;2.92;;;;;;;33.25;43.02;99465.75;5078673;28;20070;-58
2021/07/27 09:14:12;;;;;;;3.28;2.97;;;;;;;33.24;42.12;99477.59;5096558;28;20113;-58
2021/07/27 09:16:48;;;;;;;4.00;2.97;;;;;;;33.21;41.20;99477.16;5095017;28;20462;-58
2021/07/27 09:19:14;;;;;;;2.85;2.60;;;;;;;33.12;41.73;99481.03;5095915;28;20449;-58
2021/07/27 09:21:42;;;;;;;3.53;2.65;;;;;;;33.24;41.97;99477.59;5095900;28;20040;-58
2021/07/27 09:24:09;;;;;;;2.92;2.63;;;;;;;33.37;41.85;99474.19;5095155;28;20044;-58
2021/07/27 09:26:35;;;;;;;2.60;2.40;;;;;;;33.47;42.80;99479.28;5095214;28;20043;-58
2021/07/27 09:29:02;;;;;;;2.60;2.38;;;;;;;33.59;41.59;99474.22;5095827;28;20056;-59
2021/07/27 09:31:28;;;;;;;3.03;2.67;;;;;;;33.59;40.28;99474.22;5095185;28;20131;-58
2021/07/27 09:33:54;;;;;;;3.80;3.50;;;;;;;33.53;40.40;99477.72;5096854;28;20052;-58
2021/07/27 09:36:26;;;;;;;6.15;4.40;;;;;;;33.42;39.89;99471.75;5095170;28;20442;-58
2021/07/27 09:39:10;;;;;;;6.10;5.50;;;;;;;33.36;40.82;99475.22;5096044;28;20040;-58
2021/07/27 09:41:36;;;;;;;4.07;3.60;;;;;;;33.43;42.55;99478.00;5096006;28;20063;-58
2021/07/27 09:44:05;;;;;;;6.00;3.38;;;;;;;33.49;42.35;99480.81;5094947;28;20044;-58
2021/07/27 09:46:30;;;;;;;4.53;2.50;;;;;;;33.62;41.87;99482.81;5094802;28;20430;-58
2021/07/27 09:48:56;;;;;;;3.42;2.90;;;;;;;33.72;41.50;99485.19;5094672;28;20082;-58
2021/07/27 09:51:22;;;;;;;3.00;2.70;;;;;;;33.73;40.78;99485.00;5094719;28;20040;-58
2021/07/27 09:53:48;;;;;;;3.88;2.75;;;;;;;33.75;41.87;99482.09;5097900;28;20469;-58
2021/07/27 09:56:14;;;;;;;3.45;3.05;;;;;;;33.81;40.61;99488.63;5099245;28;20475;-58
2021/07/27 09:58:40;;;;;;;3.63;3.08;;;;;;;33.72;39.83;99496.88;5099271;28;20079;-58
2021/07/27 10:01:20;;;;;;;5.15;2.80;;;;;;;33.61;40.06;99488.44;5099174;28;20125;-58
2021/07/27 10:03:49;;;;;;;2.92;2.67;;;;;;;33.68;41.06;99494.78;5099391;28;20051;-58
2021/07/27 10:06:35;;;;;;;2.85;2.30;;;;;;;33.74;39.64;99481.25;5098469;28;20052;-58
2021/07/27 10:09:01;;;;;;;2.72;2.20;;;;;;;33.81;39.89;99483.19;5098250;28;20047;-58
2021/07/27 10:11:33;;;;;;;2.85;2.65;;;;;;;33.97;40.62;99491.88;5099042;28;20495;-58
2021/07/27 10:14:07;;;;;;;4.53;2.45;;;;;;;33.94;39.67;99488.72;5097775;28;20048;-58
2021/07/27 10:16:32;;;;;;;2.55;2.35;;;;;;;33.92;39.06;99482.63;5097019;28;20462;-58
2021/07/27 10:18:58;;;;;;;2.30;2.10;;;;;;;33.98;39.85;99477.25;5079286;28;20040;-58
2021/07/27 10:21:28;;;;;;;6.13;2.50;;;;;;;34.05;39.07;99480.03;5097508;28;20052;-58
2021/07/27 10:23:54;;;;;;;2.83;2.20;;;;;;;34.02;38.97;99482.31;5098667;28;20523;-58
2021/07/27 10:26:33;;;;;;;5.45;1.83;;;;;;;33.75;36.53;99476.66;5098703;28;20052;-58
2021/07/27 10:28:59;;;;;;;2.15;1.95;;;;;;;33.58;38.04;99481.53;5098616;28;20044;-58
2021/07/27 10:31:41;;;;;;;2.88;2.28;;;;;;;33.53;38.31;99483.16;5096945;28;20052;-58
2021/07/27 10:34:08;;;;;;;3.25;2.00;;;;;;;33.53;38.70;99483.16;5096900;28;20063;-58
2021/07/27 10:36:38;;;;;;;2.38;2.17;;;;;;;33.66;39.36;99488.69;5097087;28;20090;-58
2021/07/27 10:39:15;;;;;;;2.47;2.10;;;;;;;33.59;38.46;99480.50;5097195;28;20048;-58
2021/07/27 10:41:49;;;;;;;2.33;2.08;;;;;;;33.55;37.11;99472.94;5097506;28;20043;-58
2021/07/27 10:44:25;;;;;;;2.05;1.83;;;;;;;33.55;39.11;99481.09;5096426;28;20052;-58
2021/07/27 10:46:51;;;;;;;1.95;1.70;;;;;;;33.57;39.02;99482.53;5097802;28;20115;-58
2021/07/27 10:49:25;;;;;;;3.20;1.70;;;;;;;33.70;38.06;99462.81;5098302;28;20109;-58
2021/07/27 10:51:58;;;;;;;5.32;2.15;;;;;;;33.68;37.46;99468.47;5098692;28;20071;-58
2021/07/27 10:54:27;;;;;;;1.77;1.63;;;;;;;33.65;38.34;99468.84;5098159;28;20044;-57
2021/07/27 10:57:00;;;;;;;2.80;1.90;;;;;;;33.84;38.31;99464.63;5097077;28;20119;-57
2021/07/27 10:59:26;;;;;;;2.30;1.70;;;;;;;33.91;38.59;99470.94;5098438;28;20044;-57
2021/07/27 11:01:55;;;;;;;1.75;1.60;;;;;;;33.97;38.31;99470.16;5098050;28;20484;-58
2021/07/27 11:04:28;;;;;;;2.58;1.83;;;;;;;34.07;37.37;99477.16;5097950;28;20367;-58
2021/07/27 11:07:12;;;;;;;3.10;1.65;;;;;;;34.19;37.33;99472.84;5097960;28;20086;-58
2021/07/27 11:09:50;;;;;;;5.63;1.80;;;;;;;34.24;37.34;99473.06;5097654;28;20131;-58
2021/07/27 11:12:32;;;;;;;3.05;2.38;;;;;;;34.22;36.24;99460.72;5097880;28;20400;-58
2021/07/27 11:15:15;;;;;;;3.00;1.90;;;;;;;34.18;36.38;99465.72;5097862;28;20051;-58
2021/07/27 11:18:01;;;;;;;2.10;1.90;;;;;;;34.01;36.37;99464.31;5097727;28;20097;-58
2021/07/27 11:20:33;;;;;;;2.80;2.50;;;;;;;33.81;35.53;99464.19;5097736;28;20086;-58
2021/07/27 11:23:10;;;;;;;3.30;1.70;;;;;;;33.71;37.28;99468.06;5097492;28;20518;-57
2021/07/27 11:25:36;;;;;;;2.25;1.77;;;;;;;33.76;37.16;99462.03;5096996;28;20047;-58
2021/07/27 11:28:12;;;;;;;3.67;2.38;;;;;;;33.81;36.75;99465.00;5096985;28;20431;-60
2021/07/27 11:30:38;;;;;;;4.35;2.22;;;;;;;33.82;37.02;99463.97;5097476;28;20048;-57
2021/07/27 11:33:10;;;;;;;3.78;2.47;;;;;;;33.80;36.47;99467.91;5097702;28;20067;-58
2021/07/27 11:35:49;;;;;;;3.22;2.13;;;;;;;33.53;36.83;99461.44;5097694;28;20362;-57
2021/07/27 11:38:22;;;;;;;5.70;2.15;;;;;;;33.45;37.64;99460.50;5097620;28;20052;-57
2021/07/27 11:40:48;;;;;;;2.25;1.90;;;;;;;33.36;37.30;99471.69;5097299;28;20054;-57
2021/07/27 11:43:14;;;;;;;2.05;1.85;;;;;;;33.35;37.56;99462.72;5097452;28;20140;-57
2021/07/27 11:45:41;;;;;;;4.38;2.20;;;;;;;33.31;37.77;99457.84;5097087;28;20442;-57
2021/07/27 11:48:08;;;;;;;2.42;1.88;;;;;;;33.27;38.08;99455.53;5096887;28;20135;-57
2021/07/27 11:50:34;;;;;;;3.55;2.20;;;;;;;33.27;38.14;99457.41;5097396;28;20193;-57
2021/07/27 11:53:11;;;;;;;4.90;2.15;;;;;;;33.31;37.20;99455.97;5079655;28;20384;-57
2021/07/27 11:55:40;;;;;;;4.20;1.80;;;;;;;33.28;37.04;99453.69;5096210;28;20044;-57